Time;durP1;ratioP1;P1;durP2;ratioP2;P2;SDS_P1;SDS_P2;PMS_P1;PMS_P2;Temp;Humidity;BMP_temperature;BMP_pressure;BME280_temperature;BME280_humidity;BME280_pressure;Samples;Min_cycle;Max_cycle;Signal;HPM_P1;HPM_P2
2023/10/21 00:00:35;;;;;;;33.20;31.50;;;;;;;16.98;100.00;100343.91;5072714;28;20050;-77
2023/10/21 00:03:18;;;;;;;27.83;25.88;;;;;;;16.96;100.00;100340.66;5071037;28;20508;-77
2023/10/21 00:06:01;;;;;;;30.10;28.30;;;;;;;16.91;100.00;100337.94;5065381;28;20438;-79
2023/10/21 00:08:40;;;;;;;28.98;27.38;;;;;;;16.87;100.00;100334.97;5083284;28;20824;-75
2023/10/21 00:11:09;;;;;;;34.28;32.47;;;;;;;16.93;100.00;100333.94;5090865;28;20048;-75
2023/10/21 00:13:36;;;;;;;31.58;29.88;;;;;;;16.90;100.00;100336.31;5070429;28;20127;-77
2023/10/21 00:16:03;;;;;;;35.83;33.92;;;;;;;16.90;100.00;100344.38;5057438;28;20053;-76
2023/10/21 00:18:38;;;;;;;30.73;28.92;;;;;;;16.98;100.00;100353.81;5060056;28;20055;-77
2023/10/21 00:21:05;;;;;;;33.00;31.23;;;;;;;16.95;100.00;100341.72;5059599;28;20053;-76
2023/10/21 00:23:32;;;;;;;32.60;30.80;;;;;;;16.81;100.00;100341.34;5077930;28;20055;-76
2023/10/21 00:26:17;;;;;;;32.08;30.48;;;;;;;16.65;100.00;100347.63;5060728;28;20727;-75
2023/10/21 00:28:52;;;;;;;27.80;26.20;;;;;;;16.63;100.00;100344.38;5069172;28;20098;-76
2023/10/21 00:31:19;;;;;;;29.98;28.17;;;;;;;16.69;100.00;100354.88;5058352;28;20059;-75
2023/10/21 00:33:47;;;;;;;30.13;28.42;;;;;;;16.38;100.00;100353.00;5079138;28;20092;-75
2023/10/21 00:36:29;;;;;;;29.80;28.00;;;;;;;16.53;100.00;100346.97;5077505;28;20072;-76
2023/10/21 00:39:11;;;;;;;31.80;30.00;;;;;;;16.66;100.00;100343.88;5066187;28;20045;-76
2023/10/21 00:41:38;;;;;;;30.05;28.35;;;;;;;16.86;100.00;100344.06;5068568;28;20106;-76
2023/10/21 00:44:12;;;;;;;28.73;26.92;;;;;;;16.70;100.00;100351.16;5074968;28;20066;-77
2023/10/21 00:46:59;;;;;;;28.70;27.00;;;;;;;16.79;100.00;100340.78;5083375;28;20109;-77
2023/10/21 00:49:33;;;;;;;33.20;31.23;;;;;;;16.87;100.00;100347.56;5074163;28;20436;-77
2023/10/21 00:52:08;;;;;;;32.08;30.27;;;;;;;16.81;100.00;100335.97;5056561;28;20053;-77
2023/10/21 00:54:44;;;;;;;34.33;32.22;;;;;;;16.34;100.00;100333.09;5080833;28;20516;-77
2023/10/21 00:57:11;;;;;;;33.17;31.17;;;;;;;16.97;100.00;100331.53;5078719;28;20488;-77
2023/10/21 00:59:56;;;;;;;31.98;30.08;;;;;;;17.37;100.00;100335.56;5053745;28;20049;-77
2023/10/21 01:02:23;;;;;;;30.30;28.50;;;;;;;16.76;100.00;100335.94;5064190;28;20493;-76
2023/10/21 01:05:06;;;;;;;30.67;29.02;;;;;;;16.90;100.00;100345.16;5081408;28;20052;-76
2023/10/21 01:07:43;;;;;;;29.38;27.58;;;;;;;16.74;100.00;100345.28;5075570;28;20048;-75
2023/10/21 01:10:25;;;;;;;27.70;26.20;;;;;;;17.18;100.00;100346.69;5067079;28;20471;-76
2023/10/21 01:12:52;;;;;;;29.58;27.77;;;;;;;17.51;100.00;100349.31;5091714;28;20132;-76
2023/10/21 01:15:21;;;;;;;34.83;32.83;;;;;;;17.40;100.00;100349.28;5074771;28;20059;-75
2023/10/21 01:17:50;;;;;;;32.63;30.63;;;;;;;17.47;100.00;100354.41;5061593;28;20128;-78
2023/10/21 01:20:41;;;;;;;31.30;29.50;;;;;;;17.19;100.00;100360.94;5073691;28;20063;-76
2023/10/21 01:23:15;;;;;;;28.92;27.23;;;;;;;17.16;100.00;100356.91;5066212;28;20045;-77
2023/10/21 01:25:43;;;;;;;33.40;31.42;;;;;;;17.49;100.00;100359.50;5058292;28;20166;-76
2023/10/21 01:28:10;;;;;;;30.52;28.92;;;;;;;16.87;100.00;100353.72;5068665;28;20102;-76
2023/10/21 01:30:37;;;;;;;26.52;24.83;;;;;;;16.65;100.00;100359.16;5081102;28;20055;-76
2023/10/21 01:33:04;;;;;;;29.40;27.70;;;;;;;16.44;100.00;100352.78;5075236;28;20063;-76
2023/10/21 01:35:31;;;;;;;27.58;25.77;;;;;;;15.85;100.00;100359.91;5064083;28;20526;-76
2023/10/21 01:37:58;;;;;;;32.55;30.65;;;;;;;15.75;100.00;100365.94;5054960;28;20051;-75
2023/10/21 01:40:27;;;;;;;28.95;26.95;;;;;;;15.45;100.00;100361.78;5074153;28;20055;-75
2023/10/21 01:42:54;;;;;;;29.35;27.45;;;;;;;15.31;100.00;100369.34;5082868;28;20114;-76
2023/10/21 01:45:41;;;;;;;29.45;27.58;;;;;;;15.37;100.00;100369.41;5065761;28;20071;-76
2023/10/21 01:48:08;;;;;;;37.80;35.60;;;;;;;15.11;100.00;100363.69;5067495;28;20566;-77
2023/10/21 01:51:00;;;;;;;36.85;34.65;;;;;;;14.81;100.00;100361.34;5075431;28;20056;-77
2023/10/21 01:53:27;;;;;;;41.55;39.25;;;;;;;14.79;100.00;100368.78;5062268;28;20506;-76
2023/10/21 01:56:01;;;;;;;36.55;34.35;;;;;;;14.59;100.00;100375.41;5064642;28;20135;-75
2023/10/21 01:58:48;;;;;;;39.00;36.90;;;;;;;14.54;100.00;100369.97;5081282;28;20043;-76
2023/10/21 02:01:20;;;;;;;38.17;36.08;;;;;;;14.42;100.00;100369.19;5067950;28;20081;-76
2023/10/21 02:03:52;;;;;;;44.35;42.15;;;;;;;14.44;100.00;100377.78;5052667;28;20088;-77
2023/10/21 02:06:19;;;;;;;39.65;37.55;;;;;;;14.32;100.00;100379.69;5079788;28;20040;-77
2023/10/21 02:09:43;;;;;;;46.83;44.53;;;;;;;14.10;100.00;100379.53;5079175;28;20431;-77
2023/10/21 02:12:11;;;;;;;44.47;42.17;;;;;;;14.37;100.00;100377.09;5055024;28;20057;-75
2023/10/21 02:14:38;;;;;;;39.38;37.17;;;;;;;14.08;100.00;100382.44;5052755;28;20056;-78
2023/10/21 02:17:16;;;;;;;45.05;42.75;;;;;;;14.34;100.00;100383.75;5086031;28;20094;-77
2023/10/21 02:19:43;;;;;;;52.95;50.25;;;;;;;14.28;100.00;100384.72;5052378;28;20055;-76
2023/10/21 02:22:10;;;;;;;63.38;60.38;;;;;;;14.16;100.00;100389.25;5076111;28;20139;-76
2023/10/21 02:24:37;;;;;;;51.33;48.65;;;;;;;14.20;100.00;100391.22;5062049;28;20044;-74
2023/10/21 02:27:04;;;;;;;48.15;45.58;;;;;;;14.04;100.00;100385.81;5081109;28;20060;-76
2023/10/21 02:29:33;;;;;;;49.92;47.63;;;;;;;13.95;100.00;100394.22;5066881;28;20072;-76
2023/10/21 02:32:00;;;;;;;52.17;49.55;;;;;;;14.01;100.00;100388.94;5066268;28;20452;-77
2023/10/21 02:34:28;;;;;;;55.28;52.78;;;;;;;14.18;100.00;100395.19;5082134;28;20484;-76
2023/10/21 02:36:55;;;;;;;60.85;58.05;;;;;;;14.12;100.00;100388.91;5065337;28;20052;-77
2023/10/21 02:39:22;;;;;;;46.08;43.88;;;;;;;14.00;100.00;100396.16;5072370;28;20131;-76
2023/10/21 02:41:58;;;;;;;50.92;48.33;;;;;;;14.27;100.00;100395.63;5078533;28;20093;-77
2023/10/21 02:44:25;;;;;;;44.33;42.13;;;;;;;14.24;100.00;100393.41;5068307;28;20051;-76
2023/10/21 02:47:03;;;;;;;48.55;46.25;;;;;;;14.34;100.00;100401.63;5080297;28;20043;-75
2023/10/21 02:49:32;;;;;;;43.13;40.92;;;;;;;14.38;100.00;100400.13;5065789;28;20049;-76
2023/10/21 02:52:05;;;;;;;39.35;37.30;;;;;;;14.56;100.00;100405.28;5070596;28;20102;-75
2023/10/21 02:54:41;;;;;;;42.03;40.03;;;;;;;14.58;100.00;100402.38;5072946;28;20480;-76
2023/10/21 02:57:14;;;;;;;41.58;39.47;;;;;;;14.43;100.00;100411.72;5080490;28;20433;-77
2023/10/21 02:59:41;;;;;;;48.00;45.28;;;;;;;14.58;100.00;100402.38;5076627;28;20036;-74
2023/10/21 03:02:49;;;;;;;44.88;42.38;;;;;;;14.43;100.00;100413.53;5055228;28;20044;-76
2023/10/21 03:05:18;;;;;;;41.60;39.50;;;;;;;14.80;100.00;100408.66;5075290;28;20044;-76
2023/10/21 03:07:45;;;;;;;46.08;43.67;;;;;;;14.63;100.00;100415.81;5071363;28;20054;-76
2023/10/21 03:10:12;;;;;;;48.08;45.53;;;;;;;14.59;100.00;100406.69;5079495;28;20049;-76
2023/10/21 03:12:39;;;;;;;47.92;45.42;;;;;;;14.61;100.00;100416.09;5071705;28;20055;-76
2023/10/21 03:15:07;;;;;;;54.90;52.30;;;;;;;15.45;100.00;100409.94;5060201;28;20052;-77
2023/10/21 03:17:40;;;;;;;47.38;44.97;;;;;;;14.99;100.00;100411.91;5077359;28;20046;-77
2023/10/21 03:20:17;;;;;;;44.38;42.17;;;;;;;14.63;100.00;100408.63;5068692;28;20048;-76
2023/10/21 03:22:45;;;;;;;49.00;46.50;;;;;;;14.59;100.00;100412.81;5078045;28;20055;-75
2023/10/21 03:25:12;;;;;;;47.97;45.72;;;;;;;14.43;100.00;100411.72;5074289;28;20052;-76
2023/10/21 03:27:40;;;;;;;42.42;40.53;;;;;;;14.47;100.00;100417.38;5076424;28;20043;-76
2023/10/21 03:30:19;;;;;;;52.22;49.67;;;;;;;14.53;100.00;100413.78;5071919;28;20045;-74
2023/10/21 03:32:46;;;;;;;45.03;42.72;;;;;;;14.48;100.00;100412.84;5067582;28;20060;-75
2023/10/21 03:35:13;;;;;;;42.65;40.35;;;;;;;14.38;100.00;100408.94;5076599;28;20045;-76
2023/10/21 03:37:42;;;;;;;46.95;44.45;;;;;;;14.30;100.00;100416.50;5072906;28;20424;-77
2023/10/21 03:40:10;;;;;;;51.58;49.08;;;;;;;13.77;100.00;100410.38;5066579;28;20099;-76
2023/10/21 03:42:39;;;;;;;49.80;46.88;;;;;;;13.79;100.00;100416.28;5059483;28;20044;-77
2023/10/21 03:45:07;;;;;;;48.70;46.00;;;;;;;13.82;100.00;100410.47;5073168;28;20047;-76
2023/10/21 03:47:48;;;;;;;47.55;45.05;;;;;;;13.77;100.00;100414.88;5060371;28;20127;-76
2023/10/21 03:50:15;;;;;;;49.70;47.30;;;;;;;13.64;100.00;100408.75;5065765;28;20141;-76
2023/10/21 03:52:58;;;;;;;45.33;43.13;;;;;;;13.49;100.00;100411.06;5065020;28;20041;-77
2023/10/21 03:55:26;;;;;;;46.47;44.28;;;;;;;13.15;100.00;100412.66;5049651;28;20056;-76
2023/10/21 03:57:53;;;;;;;52.35;49.78;;;;;;;12.97;100.00;100410.88;5057607;28;20136;-76
2023/10/21 04:00:23;;;;;;;42.90;40.50;;;;;;;12.81;100.00;100407.84;5064817;28;20060;-76
2023/10/21 04:02:51;;;;;;;41.38;39.08;;;;;;;12.76;100.00;100409.56;5072810;28;20044;-76
2023/10/21 04:05:18;;;;;;;42.17;39.88;;;;;;;12.67;100.00;100402.94;5060408;28;20082;-76
2023/10/21 04:07:45;;;;;;;42.13;39.72;;;;;;;12.42;100.00;100411.06;5057397;28;20055;-76
2023/10/21 04:10:20;;;;;;;42.35;40.22;;;;;;;12.63;100.00;100412.41;5082094;28;20048;-74
2023/10/21 04:12:53;;;;;;;40.08;37.65;;;;;;;12.61;100.00;100412.63;5068299;28;20059;-75
2023/10/21 04:15:20;;;;;;;35.22;32.88;;;;;;;12.60;100.00;100419.81;5069813;28;20045;-78
2023/10/21 04:17:48;;;;;;;49.33;46.63;;;;;;;12.70;100.00;100421.13;5058054;28;20421;-77
2023/10/21 04:20:16;;;;;;;47.20;44.90;;;;;;;12.56;100.00;100421.31;5074842;28;20123;-77
2023/10/21 04:22:44;;;;;;;46.53;44.00;;;;;;;12.32;100.00;100428.41;5077846;28;20045;-76
2023/10/21 04:25:12;;;;;;;33.47;31.38;;;;;;;12.27;100.00;100438.91;5069606;28;20548;-76
2023/10/21 04:27:40;;;;;;;42.38;40.03;;;;;;;12.29;100.00;100434.16;5074135;28;20128;-77
2023/10/21 04:30:08;;;;;;;33.33;31.23;;;;;;;12.12;100.00;100433.13;5079045;28;20048;-76
2023/10/21 04:32:37;;;;;;;33.58;31.58;;;;;;;12.14;100.00;100437.22;5069173;28;20045;-76
2023/10/21 04:35:04;;;;;;;29.50;27.40;;;;;;;12.17;100.00;100449.28;5065024;28;20041;-76
2023/10/21 04:37:32;;;;;;;28.10;26.30;;;;;;;11.95;100.00;100437.41;5075497;28;20466;-76
2023/10/21 04:39:58;;;;;;;28.65;26.75;;;;;;;12.00;100.00;100450.88;5069945;28;20051;-75
2023/10/21 04:42:44;;;;;;;29.63;27.52;;;;;;;12.05;100.00;100437.75;5073279;28;20511;-76
2023/10/21 04:45:11;;;;;;;26.55;24.85;;;;;;;12.23;100.00;100445.72;5066933;28;20055;-77
2023/10/21 04:47:45;;;;;;;27.00;25.30;;;;;;;12.01;100.00;100452.50;5062820;28;20048;-77
2023/10/21 04:50:29;;;;;;;26.08;24.27;;;;;;;12.09;100.00;100457.53;5067251;28;20500;-77
2023/10/21 04:53:04;;;;;;;23.75;22.05;;;;;;;12.00;100.00;100469.53;5069391;28;21076;-75
2023/10/21 04:55:38;;;;;;;24.88;23.02;;;;;;;11.96;100.00;100466.50;5070366;28;20819;-77
2023/10/21 04:58:07;;;;;;;22.27;20.77;;;;;;;12.04;100.00;100463.56;5064215;28;20052;-76
2023/10/21 05:00:34;;;;;;;24.23;22.60;;;;;;;12.12;100.00;100476.53;5071652;28;20131;-75
2023/10/21 05:03:00;;;;;;;23.52;21.92;;;;;;;12.08;100.00;100475.38;5069841;28;20064;-76
2023/10/21 05:05:27;;;;;;;22.30;20.90;;;;;;;12.17;100.00;100486.53;5059249;28;20049;-76
2023/10/21 05:07:55;;;;;;;23.10;21.60;;;;;;;12.20;100.00;100488.75;5064728;28;20053;-76
2023/10/21 05:10:22;;;;;;;23.63;22.13;;;;;;;12.23;100.00;100496.31;5069139;28;20090;-77
2023/10/21 05:12:49;;;;;;;24.73;23.23;;;;;;;12.35;100.00;100494.53;5076089;28;20046;-76
2023/10/21 05:15:18;;;;;;;24.77;23.17;;;;;;;11.97;100.00;100501.91;5060224;28;20048;-77
2023/10/21 05:17:45;;;;;;;22.58;21.15;;;;;;;12.24;100.00;100515.75;5063930;28;20071;-77
2023/10/21 05:20:13;;;;;;;22.15;20.33;;;;;;;12.69;100.00;100515.44;5070668;28;20456;-77
2023/10/21 05:22:39;;;;;;;23.67;22.27;;;;;;;12.78;100.00;100517.56;5057912;28;20360;-76
2023/10/21 05:25:25;;;;;;;27.05;25.40;;;;;;;13.01;100.00;100514.19;5071295;28;20131;-75
2023/10/21 05:27:52;;;;;;;28.95;27.25;;;;;;;12.93;100.00;100516.34;5079447;28;20591;-76
2023/10/21 05:30:21;;;;;;;25.85;24.25;;;;;;;13.22;100.00;100526.19;5074602;28;20091;-74
2023/10/21 05:32:47;;;;;;;26.38;24.30;;;;;;;13.43;100.00;100532.84;5067208;28;20053;-76
2023/10/21 05:35:26;;;;;;;31.48;29.63;;;;;;;13.52;100.00;100542.19;5072054;28;20066;-76
2023/10/21 05:37:53;;;;;;;32.00;30.10;;;;;;;13.68;100.00;100531.88;5064702;28;20516;-75
2023/10/21 05:40:23;;;;;;;31.40;29.60;;;;;;;13.86;100.00;100536.31;5068553;28;20048;-75
2023/10/21 05:42:52;;;;;;;33.50;31.60;;;;;;;14.10;100.00;100542.41;5080017;28;20539;-76
2023/10/21 05:45:22;;;;;;;33.40;31.20;;;;;;;14.36;100.00;100546.47;5065346;28;20040;-76
2023/10/21 05:47:49;;;;;;;33.63;31.52;;;;;;;14.56;100.00;100548.81;5068288;28;20052;-76
2023/10/21 05:50:19;;;;;;;34.03;32.03;;;;;;;14.80;100.00;100552.22;5070460;28;20067;-76
2023/10/21 05:52:46;;;;;;;36.80;34.47;;;;;;;15.00;100.00;100551.78;5067476;28;20055;-78
2023/10/21 05:55:15;;;;;;;34.15;32.15;;;;;;;15.24;100.00;100547.94;5071235;28;20067;-75
2023/10/21 05:57:50;;;;;;;37.63;35.42;;;;;;;15.50;100.00;100556.44;5080968;28;20044;-77
2023/10/21 06:00:18;;;;;;;39.08;36.50;;;;;;;15.64;100.00;100555.03;5072756;28;20048;-76
2023/10/21 06:02:55;;;;;;;38.88;36.47;;;;;;;15.83;100.00;100562.88;5070987;28;20048;-77
2023/10/21 06:05:23;;;;;;;37.17;34.67;;;;;;;15.97;100.00;100556.09;5067798;28;20052;-75
2023/10/21 06:07:52;;;;;;;37.63;35.13;;;;;;;16.48;100.00;100559.50;5075803;28;20064;-75
2023/10/21 06:10:23;;;;;;;25.92;24.10;;;;;;;16.66;100.00;100569.91;5065953;28;20040;-74
2023/10/21 06:12:51;;;;;;;29.23;27.33;;;;;;;17.20;100.00;100569.19;5065096;28;20045;-75
2023/10/21 06:15:18;;;;;;;28.67;26.65;;;;;;;17.34;100.00;100570.41;5068446;28;20431;-78
2023/10/21 06:17:46;;;;;;;26.38;24.42;;;;;;;17.30;100.00;100573.84;5062353;28;20501;-75
2023/10/21 06:20:14;;;;;;;30.05;27.90;;;;;;;17.69;100.00;100571.78;5069075;28;20130;-76
2023/10/21 06:22:41;;;;;;;29.23;27.33;;;;;;;18.15;100.00;100576.69;5066849;28;20049;-76
2023/10/21 06:25:10;;;;;;;27.88;25.73;;;;;;;18.38;100.00;100581.69;5077102;28;20084;-77
2023/10/21 06:27:37;;;;;;;27.73;25.73;;;;;;;18.68;100.00;100578.31;5067594;28;20052;-76
2023/10/21 06:30:05;;;;;;;29.00;26.90;;;;;;;19.21;100.00;100589.00;5071093;28;20433;-75
2023/10/21 06:32:52;;;;;;;26.20;24.60;;;;;;;19.58;100.00;100596.88;5070199;28;20057;-76
2023/10/21 06:35:20;;;;;;;23.85;22.25;;;;;;;20.01;100.00;100581.25;5056746;28;20044;-76
2023/10/21 06:37:48;;;;;;;26.40;24.40;;;;;;;20.45;100.00;100585.97;5074212;28;20055;-76
2023/10/21 06:40:15;;;;;;;28.63;26.48;;;;;;;20.70;100.00;100589.72;5069496;28;20504;-75
2023/10/21 06:42:42;;;;;;;37.33;34.20;;;;;;;21.18;100.00;100587.28;5082289;28;20139;-77
2023/10/21 06:45:10;;;;;;;51.00;41.92;;;;;;;21.14;100.00;100592.44;4708603;28;9999740;-76
2023/10/21 06:47:45;;;;;;;56.05;43.22;;;;;;;21.48;100.00;100581.75;5055415;28;20059;-77
2023/10/21 06:50:12;;;;;;;41.55;38.15;;;;;;;22.05;100.00;100578.53;5062594;28;20110;-76
2023/10/21 06:52:40;;;;;;;36.22;32.95;;;;;;;22.46;100.00;100592.47;5054558;28;20432;-77
2023/10/21 06:55:10;;;;;;;35.85;32.55;;;;;;;22.37;100.00;100584.16;5061528;28;20444;-76
2023/10/21 06:57:37;;;;;;;30.52;28.55;;;;;;;22.59;100.00;100580.94;5063518;28;20049;-75
2023/10/21 07:00:05;;;;;;;27.92;26.15;;;;;;;23.02;100.00;100589.06;5058217;28;20052;-76
2023/10/21 07:02:32;;;;;;;31.55;29.52;;;;;;;22.16;100.00;100591.69;5064467;28;20050;-75
2023/10/21 07:04:59;;;;;;;29.08;27.08;;;;;;;21.28;100.00;100589.94;5071464;28;20048;-75
2023/10/21 07:07:33;;;;;;;31.40;28.65;;;;;;;20.94;100.00;100588.00;5065466;28;20044;-75
2023/10/21 07:10:03;;;;;;;29.58;27.58;;;;;;;20.56;100.00;100593.00;5057695;28;20052;-75
2023/10/21 07:12:30;;;;;;;29.30;27.27;;;;;;;20.22;100.00;100597.41;5061776;28;20459;-75
2023/10/21 07:14:59;;;;;;;26.98;24.77;;;;;;;20.09;100.00;100596.88;5056554;28;20060;-76
2023/10/21 07:17:26;;;;;;;30.63;28.33;;;;;;;19.85;100.00;100593.94;5050615;28;20088;-76
2023/10/21 07:19:53;;;;;;;27.58;25.77;;;;;;;20.03;100.00;100599.81;5055332;28;20053;-76
2023/10/21 07:22:26;;;;;;;28.00;26.10;;;;;;;19.69;100.00;100600.41;5051881;28;20048;-76
2023/10/21 07:24:56;;;;;;;29.48;26.48;;;;;;;19.60;100.00;100607.38;5059453;28;20091;-75
2023/10/21 07:27:24;;;;;;;26.27;24.58;;;;;;;19.65;100.00;100596.63;5056135;28;20171;-76
2023/10/21 07:29:56;;;;;;;26.52;24.73;;;;;;;19.54;100.00;100601.16;5065347;28;20120;-75
2023/10/21 07:32:24;;;;;;;27.50;25.70;;;;;;;19.66;100.00;100604.44;5055133;28;20184;-75
2023/10/21 07:34:54;;;;;;;28.05;26.13;;;;;;;20.29;100.00;100600.59;5058164;28;20067;-76
2023/10/21 07:37:20;;;;;;;27.35;25.35;;;;;;;20.04;100.00;100594.19;5070608;28;20121;-76
2023/10/21 07:39:47;;;;;;;27.73;25.63;;;;;;;19.88;100.00;100598.78;5053846;28;20052;-76
2023/10/21 07:42:16;;;;;;;28.38;26.17;;;;;;;19.75;100.00;100598.50;5057060;28;20063;-76
2023/10/21 07:44:47;;;;;;;27.35;25.35;;;;;;;19.70;100.00;100607.41;5056594;28;20788;-76
2023/10/21 07:47:23;;;;;;;27.02;24.92;;;;;;;20.69;100.00;100597.00;5062260;28;20055;-77
2023/10/21 07:49:51;;;;;;;26.88;24.77;;;;;;;20.08;100.00;100606.03;5055160;28;20049;-76
2023/10/21 07:52:18;;;;;;;26.67;24.63;;;;;;;20.19;100.00;100598.75;5058775;28;20136;-76
2023/10/21 07:54:45;;;;;;;26.13;24.20;;;;;;;19.83;100.00;100609.56;5055332;28;20049;-77
2023/10/21 07:57:13;;;;;;;27.73;25.73;;;;;;;20.89;100.00;100600.69;5071707;28;20061;-76
2023/10/21 07:59:48;;;;;;;26.65;24.75;;;;;;;23.02;90.51;100594.47;5072067;28;20052;-76
2023/10/21 08:02:15;;;;;;;27.25;25.10;;;;;;;28.71;46.08;100589.91;5078007;28;20439;-76
2023/10/21 08:04:42;;;;;;;26.73;24.52;;;;;;;29.16;40.24;100592.81;5072755;28;20508;-77
2023/10/21 08:07:09;;;;;;;26.10;24.00;;;;;;;28.95;37.33;100598.25;5068153;28;20421;-78
2023/10/21 08:09:50;;;;;;;24.73;22.83;;;;;;;29.57;37.33;100599.41;5062163;28;20048;-76
2023/10/21 08:12:17;;;;;;;27.10;25.00;;;;;;;29.46;35.90;100598.19;5068415;28;20044;-75
2023/10/21 08:14:44;;;;;;;27.40;25.10;;;;;;;31.12;33.43;100592.28;5057386;28;20045;-76
2023/10/21 08:17:12;;;;;;;28.63;26.05;;;;;;;30.59;33.58;100594.19;5055453;28;20519;-75
2023/10/21 08:19:39;;;;;;;26.10;24.20;;;;;;;30.69;34.19;100601.97;5065060;28;20051;-75
2023/10/21 08:22:06;;;;;;;27.20;25.20;;;;;;;30.26;33.18;100602.53;5048775;28;20048;-75
2023/10/21 08:24:33;;;;;;;27.83;25.48;;;;;;;29.40;34.64;100605.81;5054992;28;20111;-75
2023/10/21 08:27:02;;;;;;;26.50;24.30;;;;;;;30.24;33.57;100602.88;5061596;28;20436;-77
2023/10/21 08:29:29;;;;;;;28.10;25.80;;;;;;;29.71;33.59;100612.00;5070863;28;20117;-76
2023/10/21 08:31:56;;;;;;;26.40;24.15;;;;;;;31.02;33.41;100607.28;5060703;28;20053;-75
2023/10/21 08:34:31;;;;;;;26.98;24.58;;;;;;;29.72;36.04;100608.13;5068557;28;20055;-76
2023/10/21 08:37:01;;;;;;;26.08;24.08;;;;;;;31.44;33.86;100611.66;5059604;28;20477;-77
2023/10/21 08:39:32;;;;;;;26.83;24.73;;;;;;;30.03;35.62;100618.56;5055562;28;20041;-77
2023/10/21 08:42:00;;;;;;;25.95;24.00;;;;;;;30.77;36.04;100622.16;5060401;28;20049;-76
2023/10/21 08:44:41;;;;;;;27.52;24.65;;;;;;;32.31;33.85;100619.00;5060807;28;20036;-75
2023/10/21 08:47:10;;;;;;;26.05;24.00;;;;;;;30.49;34.04;100620.13;5058907;28;20099;-75
2023/10/21 08:49:41;;;;;;;26.65;24.55;;;;;;;30.25;35.21;100620.91;5059454;28;20083;-76
2023/10/21 08:52:13;;;;;;;26.57;24.47;;;;;;;29.83;36.19;100623.78;5066517;28;20132;-75
2023/10/21 08:54:43;;;;;;;26.15;24.15;;;;;;;30.89;33.02;100622.16;5063429;28;20309;-77
2023/10/21 08:57:10;;;;;;;32.40;30.13;;;;;;;31.66;32.85;100619.31;5069698;28;20504;-75
2023/10/21 08:59:37;;;;;;;27.77;25.80;;;;;;;31.68;32.84;100619.75;5059117;28;20041;-75
2023/10/21 09:02:05;;;;;;;26.83;24.73;;;;;;;31.62;31.87;100615.69;5061527;28;20049;-76
2023/10/21 09:04:33;;;;;;;31.20;28.70;;;;;;;30.37;33.78;100616.59;5064450;28;20500;-76
2023/10/21 09:07:02;;;;;;;30.33;28.02;;;;;;;28.31;39.16;100626.56;5064995;28;20048;-76
2023/10/21 09:09:40;;;;;;;28.67;26.38;;;;;;;28.34;40.76;100619.66;5070492;28;20052;-77
2023/10/21 09:12:11;;;;;;;28.85;26.65;;;;;;;26.99;44.51;100626.22;5052463;28;20418;-76
2023/10/21 09:14:52;;;;;;;27.45;25.25;;;;;;;28.40;41.34;100634.72;5057081;28;20103;-76
2023/10/21 09:17:19;;;;;;;26.85;24.55;;;;;;;27.31;43.69;100629.63;5063364;28;20040;-74
2023/10/21 09:19:51;;;;;;;27.50;25.20;;;;;;;25.00;55.59;100633.94;5064652;28;20040;-76
2023/10/21 09:22:27;;;;;;;26.40;24.20;;;;;;;26.47;47.30;100636.91;5054499;28;20044;-76
2023/10/21 09:25:09;;;;;;;25.02;23.10;;;;;;;25.48;55.35;100634.25;5062325;28;20075;-75
2023/10/21 09:27:38;;;;;;;25.52;23.63;;;;;;;25.52;53.49;100629.00;5061424;28;20052;-75
2023/10/21 09:30:06;;;;;;;26.15;24.30;;;;;;;27.89;43.72;100624.78;5058283;28;20088;-76
2023/10/21 09:32:33;;;;;;;26.13;23.90;;;;;;;26.43;47.04;100614.97;5065346;28;20059;-74
2023/10/21 09:35:14;;;;;;;26.05;23.75;;;;;;;25.48;53.75;100625.28;5062905;28;20052;-75
2023/10/21 09:37:43;;;;;;;26.95;24.75;;;;;;;24.81;58.60;100624.03;5066664;28;20048;-77
2023/10/21 09:40:25;;;;;;;25.27;23.38;;;;;;;24.47;64.46;100627.13;5071423;28;20432;-76
2023/10/21 09:43:03;;;;;;;24.70;22.90;;;;;;;26.26;54.10;100623.88;5056763;28;20048;-75
2023/10/21 09:45:30;;;;;;;23.67;21.88;;;;;;;25.80;53.11;100618.78;5049730;28;20049;-74
2023/10/21 09:48:01;;;;;;;24.30;22.40;;;;;;;28.06;46.59;100622.00;5068860;28;20052;-75
2023/10/21 09:50:28;;;;;;;25.90;23.80;;;;;;;29.78;39.06;100618.53;5066801;28;20126;-76
2023/10/21 09:53:12;;;;;;;27.13;24.67;;;;;;;29.69;40.53;100614.28;5068747;28;20053;-77
2023/10/21 09:55:48;;;;;;;36.97;24.27;;;;;;;30.25;37.80;100609.94;5067917;28;20048;-75
2023/10/21 09:58:17;;;;;;;24.38;22.58;;;;;;;27.91;42.47;100622.53;5067643;28;20053;-76
2023/10/21 10:00:46;;;;;;;27.30;25.10;;;;;;;29.24;41.38;100615.78;5058119;28;20729;-74
2023/10/21 10:03:15;;;;;;;27.05;24.75;;;;;;;29.81;37.43;100603.38;5061117;28;20163;-75
2023/10/21 10:05:42;;;;;;;26.38;24.33;;;;;;;30.64;35.39;100615.09;5067369;28;20074;-75
2023/10/21 10:08:11;;;;;;;25.20;23.30;;;;;;;27.42;42.50;100613.75;5066749;28;20131;-77
2023/10/21 10:10:39;;;;;;;26.67;24.67;;;;;;;25.48;51.87;100611.69;5062375;28;20719;-76
2023/10/21 10:13:09;;;;;;;30.00;27.80;;;;;;;30.36;37.54;100593.88;5067365;28;20054;-75
2023/10/21 10:15:38;;;;;;;29.05;26.45;;;;;;;30.66;35.98;100597.16;5069998;28;20048;-75
2023/10/21 10:18:06;;;;;;;31.92;29.20;;;;;;;31.65;32.94;100601.25;5058517;28;20053;-75
2023/10/21 10:20:33;;;;;;;28.10;25.90;;;;;;;31.10;33.25;100591.03;5065563;28;20484;-75
2023/10/21 10:23:01;;;;;;;27.90;25.80;;;;;;;28.76;37.48;100598.72;5060707;28;20053;-75
2023/10/21 10:25:36;;;;;;;28.30;26.10;;;;;;;25.06;52.95;100605.56;5061340;28;20055;-75
2023/10/21 10:28:07;;;;;;;29.38;26.90;;;;;;;26.63;48.32;100600.00;5059202;28;20049;-75
2023/10/21 10:30:35;;;;;;;27.50;25.45;;;;;;;29.48;39.30;100582.25;5060731;28;20424;-75
2023/10/21 10:33:12;;;;;;;27.40;25.25;;;;;;;30.32;36.91;100585.56;5058873;28;20139;-74
2023/10/21 10:35:41;;;;;;;29.63;27.38;;;;;;;31.45;34.82;100589.34;5057508;28;20053;-75
2023/10/21 10:38:28;;;;;;;28.33;26.23;;;;;;;31.42;32.36;100584.53;5055968;28;20056;-76
2023/10/21 10:41:05;;;;;;;26.77;24.83;;;;;;;30.68;34.45;100583.94;5062282;28;20041;-74
2023/10/21 10:43:33;;;;;;;27.67;25.58;;;;;;;30.10;35.70;100586.75;5065029;28;20500;-74
2023/10/21 10:46:01;;;;;;;28.98;26.73;;;;;;;32.06;30.81;100579.16;5058829;28;20456;-75
2023/10/21 10:48:29;;;;;;;26.70;24.70;;;;;;;28.05;38.93;100583.00;5056965;28;20496;-74
2023/10/21 10:51:00;;;;;;;27.98;25.88;;;;;;;30.64;34.94;100576.72;5053244;28;20591;-74
2023/10/21 10:53:30;;;;;;;30.90;26.13;;;;;;;29.06;37.85;100586.97;5063607;28;20051;-74
2023/10/21 10:55:58;;;;;;;26.92;24.92;;;;;;;30.40;36.16;100570.13;5061047;28;20506;-76
2023/10/21 10:58:27;;;;;;;27.38;25.25;;;;;;;28.96;37.33;100577.22;5051626;28;20056;-74
2023/10/21 11:00:54;;;;;;;27.05;25.05;;;;;;;29.82;35.77;100566.66;5057781;28;20083;-74
2023/10/21 11:03:27;;;;;;;24.98;23.08;;;;;;;27.40;41.36;100584.88;5052416;28;20572;-75
2023/10/21 11:05:55;;;;;;;26.17;24.08;;;;;;;27.05;43.15;100578.59;5054794;28;20505;-76
2023/10/21 11:08:22;;;;;;;23.40;21.70;;;;;;;28.09;41.21;100577.69;5055698;28;20053;-75
2023/10/21 11:10:53;;;;;;;28.20;26.20;;;;;;;31.80;31.65;100561.25;5051931;28;20413;-74
2023/10/21 11:13:22;;;;;;;26.60;24.60;;;;;;;28.00;39.25;100574.19;5064703;28;20049;-75
2023/10/21 11:15:55;;;;;;;27.25;25.15;;;;;;;27.21;41.94;100576.22;5056746;28;20048;-74
2023/10/21 11:18:22;;;;;;;29.60;27.30;;;;;;;28.94;38.78;100569.34;5054136;28;20065;-75
2023/10/21 11:20:57;;;;;;;28.73;26.52;;;;;;;31.59;32.06;100560.66;5060916;28;20051;-74